Time;durP1;ratioP1;P1;durP2;ratioP2;P2;SDS_P1;SDS_P2;PMS_P1;PMS_P2;Temp;Humidity;BMP_temperature;BMP_pressure;BME280_temperature;BME280_humidity;BME280_pressure;Samples;Min_cycle;Max_cycle;Signal;HPM_P1;HPM_P2
2021/03/04 00:00:12;;;;;;;90.22;30.13;;;6.80;99.90;;;;;;5058277;28;20033;-51
2021/03/04 00:02:38;;;;;;;;;;;6.70;99.90;;;;;;5053919;28;20132;-51
2021/03/04 00:05:06;;;;;;;83.82;32.08;;;6.60;99.90;;;;;;5064404;28;20331;-54
2021/03/04 00:07:32;;;;;;;71.05;29.05;;;6.50;99.90;;;;;;5056901;28;20107;-51
2021/03/04 00:09:57;;;;;;;77.63;29.67;;;6.50;99.90;;;;;;5051365;28;20461;-51
2021/03/04 00:12:23;;;;;;;84.13;30.05;;;6.40;99.90;;;;;;5051560;28;20103;-51
2021/03/04 00:14:48;;;;;;;83.18;31.52;;;6.40;99.90;;;;;;5061408;28;20029;-52
2021/03/04 00:17:14;;;;;;;72.82;30.40;;;6.40;99.90;;;;;;5055226;28;20048;-52
2021/03/04 00:19:39;;;;;;;70.57;29.23;;;6.50;99.90;;;;;;5058700;28;20043;-50
2021/03/04 00:22:05;;;;;;;75.32;30.00;;;6.50;99.90;;;;;;5055105;28;20043;-54
2021/03/04 00:24:31;;;;;;;73.47;29.80;;;6.60;99.90;;;;;;5058907;28;20111;-54
2021/03/04 00:26:56;;;;;;;77.18;28.80;;;6.60;99.90;;;;;;5052926;28;20032;-52
2021/03/04 00:29:22;;;;;;;77.80;31.52;;;6.70;99.90;;;;;;5055037;28;20035;-54
2021/03/04 00:31:47;;;;;;;79.22;31.20;;;6.60;99.90;;;;;;5052340;28;20025;-51
2021/03/04 00:34:13;;;;;;;82.38;31.98;;;6.60;99.90;;;;;;5058260;28;20588;-53
2021/03/04 00:36:38;;;;;;;83.55;32.60;;;6.60;99.90;;;;;;5051596;28;20037;-50
2021/03/04 00:39:06;;;;;;;82.10;31.27;;;6.70;99.90;;;;;;5055000;28;20070;-53
2021/03/04 00:41:32;;;;;;;75.57;32.10;;;6.70;99.90;;;;;;5057935;28;20044;-52
2021/03/04 00:43:57;;;;;;;77.55;31.90;;;6.70;99.90;;;;;;5056560;28;20025;-54
2021/03/04 00:46:23;;;;;;;71.45;28.52;;;6.80;99.90;;;;;;5054917;28;20078;-54
2021/03/04 00:48:48;;;;;;;74.03;31.23;;;6.80;99.90;;;;;;5055986;28;20036;-53
2021/03/04 00:51:14;;;;;;;81.97;32.55;;;6.70;99.90;;;;;;5053020;28;20037;-50
2021/03/04 00:53:39;;;;;;;80.95;32.78;;;6.70;99.90;;;;;;5056984;28;20036;-50
2021/03/04 00:56:05;;;;;;;80.95;31.65;;;6.60;99.90;;;;;;5059266;28;20106;-50
2021/03/04 00:58:31;;;;;;;70.93;29.13;;;6.50;99.90;;;;;;5051548;28;20036;-53
2021/03/04 01:00:56;;;;;;;72.65;29.75;;;6.50;99.90;;;;;;5053630;28;20033;-51
2021/03/04 01:03:22;;;;;;;75.38;29.08;;;6.40;99.90;;;;;;5057289;28;20043;-51
2021/03/04 01:05:47;;;;;;;67.07;30.27;;;6.30;99.90;;;;;;5057917;28;20036;-51
2021/03/04 01:08:13;;;;;;;89.65;31.77;;;6.20;99.90;;;;;;5058238;28;20082;-53
2021/03/04 01:10:40;;;;;;;85.97;32.08;;;6.30;99.90;;;;;;5053710;28;20046;-53
2021/03/04 01:13:06;;;;;;;83.80;33.65;;;6.30;99.90;;;;;;5055614;28;20017;-54
2021/03/04 01:15:32;;;;;;;83.05;31.63;;;6.40;99.90;;;;;;5062133;28;20444;-53
2021/03/04 01:17:59;;;;;;;94.13;35.33;;;6.40;99.90;;;;;;5060088;28;20023;-52
2021/03/04 01:20:25;;;;;;;75.45;32.60;;;6.40;99.90;;;;;;5052974;28;20065;-53
2021/03/04 01:22:50;;;;;;;83.65;32.67;;;6.40;99.90;;;;;;5056589;28;20508;-50
2021/03/04 01:25:17;;;;;;;96.45;37.20;;;6.40;99.90;;;;;;5059051;28;20086;-54
2021/03/04 01:27:43;;;;;;;80.55;37.35;;;6.40;99.90;;;;;;5052031;28;20066;-51
2021/03/04 01:30:11;;;;;;;96.63;38.63;;;6.40;99.90;;;;;;5051186;28;20031;-50
2021/03/04 01:32:37;;;;;;;99.00;40.38;;;6.50;99.90;;;;;;5052358;28;20018;-53
2021/03/04 01:35:05;;;;;;;90.63;36.97;;;6.60;99.90;;;;;;5062228;28;20344;-52
2021/03/04 01:37:30;;;;;;;107.00;39.47;;;6.60;99.90;;;;;;5056715;28;20036;-53
2021/03/04 01:39:56;;;;;;;100.32;40.08;;;6.70;99.90;;;;;;5055909;28;20493;-52
2021/03/04 01:42:21;;;;;;;91.85;39.65;;;6.80;99.90;;;;;;5055487;28;20033;-53
2021/03/04 01:44:47;;;;;;;97.10;39.70;;;6.80;99.90;;;;;;5055207;28;20124;-51
2021/03/04 01:47:13;;;;;;;88.13;37.65;;;6.90;99.90;;;;;;5054706;28;20036;-51
2021/03/04 01:49:40;;;;;;;96.43;40.00;;;6.90;99.90;;;;;;5054914;28;20032;-52
2021/03/04 01:52:07;;;;;;;95.85;39.08;;;7.00;99.90;;;;;;5054265;28;20020;-53
2021/03/04 01:54:32;;;;;;;97.38;39.88;;;7.00;99.90;;;;;;5053258;28;20163;-52
2021/03/04 01:56:58;;;;;;;88.05;36.83;;;7.00;99.90;;;;;;5051919;28;20444;-52
2021/03/04 01:59:23;;;;;;;84.60;35.20;;;6.90;99.90;;;;;;5051487;28;20107;-54
2021/03/04 02:02:17;;;;;;;83.80;34.33;;;6.90;99.90;;;;;;5053966;28;20056;-54
2021/03/04 02:04:43;;;;;;;91.60;37.88;;;6.90;99.90;;;;;;5053838;28;20033;-54
2021/03/04 02:07:13;;;;;;;99.78;41.33;;;6.80;99.90;;;;;;5059716;28;20028;-51
2021/03/04 02:09:43;;;;;;;95.57;38.38;;;6.70;99.90;;;;;;5053822;28;20021;-50
2021/03/04 02:12:43;;;;;;;118.13;47.85;;;6.70;99.90;;;;;;5050949;28;20025;-54
2021/03/04 02:15:14;;;;;;;94.07;40.67;;;6.70;99.90;;;;;;5038869;28;20063;-53
2021/03/04 02:17:46;;;;;;;110.50;45.58;;;6.80;99.90;;;;;;5059707;28;20017;-54
2021/03/04 02:20:22;;;;;;;110.85;43.75;;;6.90;99.90;;;;;;5057535;28;20043;-52
2021/03/04 02:23:03;;;;;;;113.30;45.28;;;6.90;99.90;;;;;;5057073;28;20462;-54
2021/03/04 02:25:37;;;;;;;101.70;43.92;;;7.00;99.90;;;;;;5055275;28;20025;-52
2021/03/04 02:28:03;;;;;;;;;;;7.10;99.90;;;;;;5054843;28;20047;-51
2021/03/04 02:30:35;;;;;;;121.82;48.35;;;7.10;99.90;;;;;;5053899;28;20372;-51
2021/03/04 02:33:08;;;;;;;131.07;53.67;;;7.10;99.90;;;;;;5054587;28;20059;-53
2021/03/04 02:35:35;;;;;;;125.30;48.72;;;7.00;99.90;;;;;;5050335;28;20029;-52
2021/03/04 02:38:10;;;;;;;137.82;51.05;;;7.00;99.90;;;;;;5054959;28;20029;-54
2021/03/04 02:40:37;;;;;;;114.55;49.22;;;7.00;99.90;;;;;;5055149;28;20044;-51
2021/03/04 02:43:07;;;;;;;124.70;51.42;;;7.00;99.90;;;;;;5059411;28;20035;-54
2021/03/04 02:45:33;;;;;;;126.18;51.13;;;7.10;99.90;;;;;;5047812;28;20052;-54
2021/03/04 02:47:59;;;;;;;125.18;51.70;;;7.20;99.90;;;;;;5056938;28;20051;-54
2021/03/04 02:50:25;;;;;;;127.60;50.92;;;7.20;99.90;;;;;;5047134;28;20028;-51
2021/03/04 02:52:52;;;;;;;130.45;49.50;;;7.20;99.90;;;;;;5057311;28;20021;-51
2021/03/04 02:55:19;;;;;;;124.93;48.75;;;7.10;99.90;;;;;;5052933;28;20048;-50
2021/03/04 02:57:47;;;;;;;124.72;48.00;;;7.00;99.90;;;;;;5051982;28;20033;-51
2021/03/04 03:00:18;;;;;;;121.55;48.97;;;6.90;99.90;;;;;;5058344;28;20030;-50
2021/03/04 03:02:45;;;;;;;128.75;51.55;;;6.90;99.90;;;;;;5055026;28;20032;-53
2021/03/04 03:05:13;;;;;;;131.60;52.63;;;6.90;99.90;;;;;;5056661;28;20033;-54
2021/03/04 03:07:43;;;;;;;125.50;51.47;;;6.90;99.90;;;;;;5055494;28;20459;-51
2021/03/04 03:10:12;;;;;;;113.30;50.08;;;7.00;99.90;;;;;;5054660;28;20029;-53
2021/03/04 03:12:40;;;;;;;124.40;53.40;;;7.10;99.90;;;;;;5060667;28;20092;-54
2021/03/04 03:15:11;;;;;;;134.38;53.90;;;7.20;99.90;;;;;;5052171;28;20035;-51
2021/03/04 03:17:38;;;;;;;127.45;55.70;;;7.10;99.90;;;;;;5055779;28;20060;-53
2021/03/04 03:20:16;;;;;;;124.50;52.05;;;7.10;99.90;;;;;;5054649;28;20032;-50
2021/03/04 03:22:42;;;;;;;126.15;51.55;;;7.20;99.90;;;;;;5054688;28;20245;-50
2021/03/04 03:25:09;;;;;;;122.20;50.75;;;7.20;99.90;;;;;;5060432;28;20112;-51
2021/03/04 03:27:35;;;;;;;133.25;53.33;;;7.30;99.90;;;;;;5057114;28;20032;-50
2021/03/04 03:30:05;;;;;;;124.30;51.13;;;7.20;99.90;;;;;;5058862;28;20043;-52
2021/03/04 03:32:31;;;;;;;115.30;49.92;;;7.20;99.90;;;;;;5063730;28;20520;-50
2021/03/04 03:34:59;;;;;;;127.63;51.05;;;7.10;99.90;;;;;;5054305;28;20112;-52
2021/03/04 03:37:26;;;;;;;129.60;52.40;;;7.00;99.90;;;;;;5054397;28;20028;-50
2021/03/04 03:39:54;;;;;;;118.75;50.05;;;6.90;99.90;;;;;;5060910;28;20112;-53
2021/03/04 03:42:20;;;;;;;126.22;50.30;;;6.80;99.90;;;;;;5054213;28;20028;-52
2021/03/04 03:44:47;;;;;;;128.38;54.05;;;6.60;99.90;;;;;;5060237;28;20439;-53
2021/03/04 03:47:14;;;;;;;132.85;56.78;;;6.50;99.90;;;;;;5057203;28;20109;-53
2021/03/04 03:49:41;;;;;;;132.93;55.15;;;6.60;99.90;;;;;;5056107;28;20051;-50
2021/03/04 03:52:07;;;;;;;131.55;55.30;;;6.60;99.90;;;;;;5056787;28;20033;-54
2021/03/04 03:54:34;;;;;;;118.82;53.67;;;6.60;99.90;;;;;;5053916;28;20037;-53
2021/03/04 03:57:00;;;;;;;120.75;52.47;;;6.70;99.90;;;;;;5059416;28;20049;-52
2021/03/04 03:59:27;;;;;;;145.38;55.67;;;6.70;99.90;;;;;;5056058;28;20033;-53
2021/03/04 04:01:53;;;;;;;148.20;59.60;;;6.70;99.90;;;;;;5057517;28;20032;-51
2021/03/04 04:04:20;;;;;;;138.75;57.03;;;6.60;99.90;;;;;;5054980;28;20138;-52
2021/03/04 04:06:46;;;;;;;129.13;56.92;;;6.50;99.90;;;;;;5054272;28;20481;-54
2021/03/04 04:09:12;;;;;;;143.77;58.95;;;6.60;99.90;;;;;;5054549;28;20120;-53
2021/03/04 04:11:37;;;;;;;154.38;57.80;;;6.50;99.90;;;;;;5050572;28;20473;-54
2021/03/04 04:14:03;;;;;;;148.05;61.85;;;6.40;99.90;;;;;;5059447;28;20043;-50
2021/03/04 04:16:29;;;;;;;144.02;56.65;;;6.30;99.90;;;;;;5051907;28;20031;-51
2021/03/04 04:18:56;;;;;;;138.13;57.88;;;6.30;99.90;;;;;;5061055;28;20385;-51
2021/03/04 04:21:22;;;;;;;147.65;56.47;;;6.20;99.90;;;;;;5061906;28;20029;-52
2021/03/04 04:23:48;;;;;;;136.85;57.65;;;6.20;99.90;;;;;;5056919;28;20128;-53
2021/03/04 04:26:15;;;;;;;130.82;55.25;;;6.20;99.90;;;;;;5057013;28;20028;-53
2021/03/04 04:28:41;;;;;;;147.60;59.35;;;6.30;99.90;;;;;;5057977;28;20469;-51
2021/03/04 04:31:06;;;;;;;147.75;56.78;;;6.30;99.90;;;;;;5053583;28;20127;-50
2021/03/04 04:33:32;;;;;;;132.70;58.03;;;6.40;99.90;;;;;;5056313;28;20058;-53
2021/03/04 04:35:58;;;;;;;141.70;60.05;;;6.40;99.90;;;;;;5056032;28;20816;-50
2021/03/04 04:38:23;;;;;;;134.43;57.17;;;6.40;99.90;;;;;;5059329;28;20132;-55
2021/03/04 04:40:49;;;;;;;136.27;54.58;;;6.40;99.90;;;;;;5057134;28;20036;-53
2021/03/04 04:43:15;;;;;;;131.38;58.67;;;6.50;99.90;;;;;;5056057;28;20108;-51
2021/03/04 04:45:41;;;;;;;147.55;59.55;;;6.60;99.90;;;;;;5056778;28;20474;-50
2021/03/04 04:48:07;;;;;;;160.77;64.28;;;6.70;99.90;;;;;;5058758;28;20026;-52
2021/03/04 04:50:32;;;;;;;138.77;62.42;;;6.80;99.90;;;;;;5052571;28;20562;-52
2021/03/04 04:52:58;;;;;;;152.48;63.47;;;6.90;99.90;;;;;;5061672;28;20039;-53
2021/03/04 04:55:24;;;;;;;139.18;60.53;;;6.90;99.90;;;;;;5060733;28;20499;-51
2021/03/04 04:57:49;;;;;;;133.00;58.03;;;6.80;99.90;;;;;;5053946;28;20803;-53
2021/03/04 05:00:15;;;;;;;127.65;55.28;;;6.90;99.90;;;;;;5046513;28;20044;-53
2021/03/04 05:02:41;;;;;;;122.53;56.33;;;7.00;99.90;;;;;;5052827;28;20025;-53
2021/03/04 05:05:08;;;;;;;142.40;59.75;;;6.90;99.90;;;;;;5060630;28;20031;-54
2021/03/04 05:07:34;;;;;;;140.63;60.35;;;6.90;99.90;;;;;;5051433;28;20037;-52
2021/03/04 05:09:59;;;;;;;156.70;64.43;;;6.80;99.90;;;;;;5058128;28;20142;-50
2021/03/04 05:12:25;;;;;;;155.00;63.08;;;6.80;99.90;;;;;;5057576;28;20029;-50
2021/03/04 05:14:52;;;;;;;158.93;64.30;;;6.70;99.90;;;;;;5055687;28;20106;-51
2021/03/04 05:17:21;;;;;;;145.38;63.50;;;6.70;99.90;;;;;;5053200;28;20036;-50
2021/03/04 05:19:47;;;;;;;157.65;63.63;;;6.70;99.90;;;;;;5064993;28;20240;-50
2021/03/04 05:22:13;;;;;;;144.43;62.72;;;6.70;99.90;;;;;;5057677;28;20033;-50
2021/03/04 05:24:38;;;;;;;160.85;66.78;;;6.70;99.90;;;;;;5060777;28;20040;-50
2021/03/04 05:27:04;;;;;;;151.98;64.82;;;6.80;99.90;;;;;;5061026;28;20036;-50
2021/03/04 05:29:30;;;;;;;159.75;66.80;;;6.80;99.90;;;;;;5061817;28;20499;-51
2021/03/04 05:31:55;;;;;;;171.10;71.40;;;6.80;99.90;;;;;;5051934;28;20089;-50
2021/03/04 05:34:21;;;;;;;155.88;68.03;;;6.80;99.90;;;;;;5051418;28;20031;-52
2021/03/04 05:36:47;;;;;;;140.88;61.53;;;6.90;99.90;;;;;;5060251;28;20104;-50
2021/03/04 05:39:12;;;;;;;152.07;63.97;;;7.00;99.90;;;;;;5059103;28;20070;-50
2021/03/04 05:41:38;;;;;;;163.68;64.88;;;7.10;99.90;;;;;;5050771;28;20111;-51
2021/03/04 05:44:07;;;;;;;168.13;66.38;;;7.10;99.90;;;;;;5054049;28;20055;-52
2021/03/04 05:46:34;;;;;;;148.45;64.22;;;7.10;99.90;;;;;;5053054;28;20108;-51
2021/03/04 05:49:02;;;;;;;163.30;66.72;;;7.10;99.90;;;;;;5056394;28;20032;-53
2021/03/04 05:51:33;;;;;;;160.35;67.45;;;7.10;99.90;;;;;;5055829;28;20388;-53
2021/03/04 05:53:59;;;;;;;148.80;58.58;;;7.10;99.90;;;;;;5058517;28;20033;-51
2021/03/04 05:56:25;;;;;;;147.18;61.60;;;7.10;99.90;;;;;;5053295;28;20397;-53
2021/03/04 05:58:52;;;;;;;136.48;60.25;;;7.10;99.90;;;;;;5055373;28;20037;-52
2021/03/04 06:01:18;;;;;;;138.68;59.53;;;7.10;99.90;;;;;;5053808;28;20035;-53
2021/03/04 06:03:45;;;;;;;130.20;55.90;;;7.10;99.90;;;;;;5055533;28;20032;-52
2021/03/04 06:06:11;;;;;;;140.35;57.65;;;7.10;99.90;;;;;;5050933;28;20113;-50
2021/03/04 06:08:37;;;;;;;139.35;58.45;;;7.10;99.90;;;;;;5052491;28;20112;-53
2021/03/04 06:11:04;;;;;;;143.45;59.15;;;7.20;99.90;;;;;;5052321;28;20431;-50
2021/03/04 06:13:30;;;;;;;144.05;58.33;;;7.10;99.90;;;;;;5053731;28;20527;-51
2021/03/04 06:15:56;;;;;;;148.02;61.58;;;7.10;99.90;;;;;;5055950;28;20377;-56
2021/03/04 06:18:22;;;;;;;139.88;58.95;;;7.10;99.90;;;;;;5058535;28;20124;-50
2021/03/04 06:20:48;;;;;;;143.88;59.83;;;7.10;99.90;;;;;;5052864;28;20424;-56
2021/03/04 06:23:14;;;;;;;151.68;61.88;;;7.10;99.90;;;;;;5052602;28;20496;-57
2021/03/04 06:25:40;;;;;;;157.57;64.55;;;7.30;99.90;;;;;;5047459;28;20077;-55
2021/03/04 06:28:09;;;;;;;164.57;66.68;;;7.30;99.90;;;;;;5052376;28;20060;-56
2021/03/04 06:30:39;;;;;;;158.10;62.88;;;7.40;99.90;;;;;;5047009;28;20040;-56
2021/03/04 06:33:08;;;;;;;151.95;62.40;;;7.50;99.90;;;;;;5051869;28;20029;-52
2021/03/04 06:35:41;;;;;;;150.13;62.70;;;7.50;99.90;;;;;;5047909;28;20128;-54
2021/03/04 06:38:19;;;;;;;141.60;60.90;;;7.50;99.90;;;;;;5048898;28;20025;-54
2021/03/04 06:40:46;;;;;;;122.43;55.30;;;7.50;99.90;;;;;;5051473;28;20278;-55
2021/03/04 06:43:28;;;;;;;122.88;55.42;;;7.60;99.90;;;;;;5056807;28;20116;-53
2021/03/04 06:46:03;;;;;;;126.55;55.85;;;7.70;99.90;;;;;;5057855;28;20053;-52
2021/03/04 06:48:29;;;;;;;129.70;57.88;;;7.80;99.90;;;;;;5053725;28;20523;-54
2021/03/04 06:51:00;;;;;;;117.10;53.63;;;7.80;99.90;;;;;;5052478;28;20069;-55
2021/03/04 06:53:28;;;;;;;120.32;52.60;;;7.80;99.90;;;;;;5051035;28;20389;-54
2021/03/04 06:56:05;;;;;;;117.60;51.70;;;7.90;99.90;;;;;;5054005;28;20043;-52
2021/03/04 06:58:39;;;;;;;122.30;53.15;;;7.90;99.90;;;;;;5052731;28;20377;-53
2021/03/04 07:01:07;;;;;;;119.20;52.10;;;7.90;99.90;;;;;;5047817;28;20029;-55
2021/03/04 07:03:39;;;;;;;117.72;53.95;;;8.00;99.90;;;;;;5056686;28;20032;-55
2021/03/04 07:06:08;;;;;;;112.45;55.97;;;8.00;99.90;;;;;;5057235;28;20170;-52
2021/03/04 07:08:45;;;;;;;121.18;54.92;;;8.00;99.90;;;;;;5055506;28;20048;-54
2021/03/04 07:11:13;;;;;;;112.78;52.90;;;8.00;99.90;;;;;;5054004;28;20507;-55
2021/03/04 07:13:41;;;;;;;126.88;56.30;;;8.10;99.90;;;;;;5058420;28;20072;-55
2021/03/04 07:16:19;;;;;;;116.80;55.75;;;8.10;99.90;;;;;;5053861;28;20048;-55
2021/03/04 07:18:56;;;;;;;153.65;65.75;;;8.10;99.90;;;;;;5054025;28;20104;-52
2021/03/04 07:21:25;;;;;;;146.55;67.18;;;8.10;99.90;;;;;;5053320;28;20039;-55
2021/03/04 07:23:51;;;;;;;150.98;69.43;;;8.00;99.90;;;;;;5058468;28;20385;-52
2021/03/04 07:26:18;;;;;;;147.25;68.45;;;8.00;99.90;;;;;;5057431;28;20059;-52
2021/03/04 07:28:46;;;;;;;168.10;73.65;;;8.10;99.90;;;;;;5054749;28;20475;-55
2021/03/04 07:31:14;;;;;;;167.57;74.30;;;8.10;99.90;;;;;;5055907;28;20033;-54
2021/03/04 07:33:44;;;;;;;173.23;74.25;;;8.10;99.90;;;;;;5054849;28;20037;-52
2021/03/04 07:36:11;;;;;;;169.65;76.00;;;8.10;99.90;;;;;;5058476;28;20115;-53
2021/03/04 07:38:37;;;;;;;166.00;81.50;;;8.20;99.90;;;;;;5033911;28;20025;-52
2021/03/04 07:41:12;;;;;;;169.70;78.80;;;8.20;99.90;;;;;;5059767;28;20035;-54
2021/03/04 07:43:51;;;;;;;172.57;79.22;;;8.10;99.90;;;;;;5054053;28;20033;-52
2021/03/04 07:46:34;;;;;;;180.05;83.35;;;8.10;99.90;;;;;;5053883;28;20040;-53
2021/03/04 07:49:01;;;;;;;189.55;83.15;;;8.10;99.90;;;;;;5038929;28;20043;-54
2021/03/04 07:51:27;;;;;;;180.82;83.57;;;8.10;99.90;;;;;;5054834;28;20067;-55
2021/03/04 07:53:54;;;;;;;177.65;82.75;;;8.00;99.90;;;;;;5054714;28;20377;-56
2021/03/04 07:56:27;;;;;;;170.07;81.00;;;8.00;99.90;;;;;;5049025;28;20456;-54
2021/03/04 07:58:55;;;;;;;172.05;79.40;;;8.00;99.90;;;;;;5054231;28;20031;-56
2021/03/04 08:01:21;;;;;;;168.50;79.35;;;8.10;99.90;;;;;;5051227;28;20091;-54
2021/03/04 08:03:49;;;;;;;160.55;76.90;;;8.10;99.90;;;;;;5056439;28;20132;-56
2021/03/04 08:06:15;;;;;;;164.43;75.80;;;8.10;99.90;;;;;;5051690;28;20386;-53
2021/03/04 08:08:41;;;;;;;147.60;72.55;;;8.10;99.90;;;;;;5055997;28;20029;-56
2021/03/04 08:11:07;;;;;;;160.20;78.05;;;8.10;99.90;;;;;;5057534;28;20046;-56
2021/03/04 08:13:35;;;;;;;153.02;73.78;;;8.10;99.90;;;;;;5057209;28;20025;-55
2021/03/04 08:16:01;;;;;;;160.45;74.28;;;8.10;99.90;;;;;;5053170;28;20105;-53
2021/03/04 08:18:27;;;;;;;160.95;76.07;;;8.20;99.90;;;;;;5056033;28;20035;-55
2021/03/04 08:21:04;;;;;;;150.52;74.13;;;8.10;99.90;;;;;;5058207;28;20025;-54
2021/03/04 08:23:30;;;;;;;161.18;73.45;;;8.10;99.90;;;;;;5051885;28;20025;-53
2021/03/04 08:25:56;;;;;;;144.07;72.13;;;8.10;99.90;;;;;;5062354;28;20507;-52
2021/03/04 08:28:27;;;;;;;155.05;73.15;;;8.20;99.90;;;;;;5053620;28;20343;-55
2021/03/04 08:30:53;;;;;;;149.98;72.93;;;8.20;99.90;;;;;;5057909;28;20108;-55
2021/03/04 08:33:20;;;;;;;152.90;74.97;;;8.20;99.90;;;;;;5052875;28;20474;-56
2021/03/04 08:35:49;;;;;;;174.45;80.10;;;8.20;99.90;;;;;;5057703;28;20341;-55
2021/03/04 08:38:23;;;;;;;160.93;75.97;;;8.20;99.90;;;;;;5053183;28;20068;-52
2021/03/04 08:40:53;;;;;;;162.05;77.40;;;8.20;99.90;;;;;;5051755;28;20061;-53
2021/03/04 08:43:24;;;;;;;157.27;75.88;;;8.20;99.90;;;;;;5052351;28;20021;-52
2021/03/04 08:45:54;;;;;;;176.15;79.25;;;8.20;99.90;;;;;;5055673;28;20033;-53
2021/03/04 08:48:20;;;;;;;152.23;73.80;;;8.30;99.90;;;;;;5050851;28;20412;-53
2021/03/04 08:50:50;;;;;;;162.35;75.30;;;8.30;99.90;;;;;;5054804;28;20503;-54
2021/03/04 08:53:17;;;;;;;155.25;72.25;;;8.40;99.90;;;;;;5053535;28;20037;-56
2021/03/04 08:55:54;;;;;;;157.10;72.82;;;8.40;99.90;;;;;;5053513;28;20496;-53
2021/03/04 08:58:21;;;;;;;138.82;68.95;;;8.50;99.90;;;;;;5050179;28;20025;-53
2021/03/04 09:00:55;;;;;;;138.82;68.20;;;8.50;99.90;;;;;;5055440;28;20025;-55
2021/03/04 09:03:22;;;;;;;143.80;67.63;;;8.50;99.90;;;;;;5050820;28;20025;-56
2021/03/04 09:05:48;;;;;;;137.80;65.32;;;8.60;99.90;;;;;;5052762;28;20032;-57
2021/03/04 09:08:14;;;;;;;148.73;69.95;;;8.50;99.90;;;;;;5053338;28;20031;-55
2021/03/04 09:10:47;;;;;;;144.65;69.03;;;8.50;99.90;;;;;;5055887;28;20025;-56
2021/03/04 09:13:26;;;;;;;139.93;66.35;;;8.60;99.90;;;;;;5051478;28;20090;-54
2021/03/04 09:15:58;;;;;;;135.60;65.15;;;8.60;99.90;;;;;;5049415;28;20025;-57
2021/03/04 09:18:25;;;;;;;128.82;61.80;;;8.80;99.90;;;;;;5052556;28;20491;-57
2021/03/04 09:20:54;;;;;;;116.85;59.45;;;8.80;99.90;;;;;;5052048;28;20021;-55
2021/03/04 09:23:21;;;;;;;120.22;60.05;;;8.80;99.90;;;;;;5056729;28;20499;-55
2021/03/04 09:25:47;;;;;;;118.30;56.50;;;8.90;99.90;;;;;;5051730;28;20518;-53
2021/03/04 09:28:17;;;;;;;110.90;55.78;;;8.90;99.90;;;;;;5062143;28;20041;-58
2021/03/04 09:30:43;;;;;;;108.65;55.75;;;8.90;99.90;;;;;;5033557;28;20106;-57
2021/03/04 09:33:20;;;;;;;109.00;57.47;;;9.10;99.90;;;;;;5048346;28;20159;-55
2021/03/04 09:36:03;;;;;;;109.22;54.10;;;9.20;99.90;;;;;;5049413;28;20021;-54
2021/03/04 09:38:30;;;;;;;94.63;47.10;;;9.20;99.90;;;;;;5036203;28;20029;-55
2021/03/04 09:41:16;;;;;;;125.93;51.80;;;9.20;99.90;;;;;;5054017;28;20048;-55
2021/03/04 09:43:48;;;;;;;113.05;52.97;;;9.00;99.90;;;;;;5056490;28;20035;-56
2021/03/04 09:46:28;;;;;;;110.88;53.85;;;8.90;99.90;;;;;;5049499;28;20025;-57
2021/03/04 09:48:55;;;;;;;128.38;57.17;;;8.90;99.90;;;;;;5053298;28;20025;-55
2021/03/04 09:51:34;;;;;;;122.60;59.25;;;8.90;99.90;;;;;;5056808;28;20137;-57
2021/03/04 09:54:00;;;;;;;129.23;56.22;;;9.00;99.90;;;;;;5053140;28;20036;-56
2021/03/04 09:56:26;;;;;;;115.03;53.08;;;9.00;99.90;;;;;;5061069;28;20028;-54
2021/03/04 09:58:51;;;;;;;122.05;53.05;;;9.00;99.90;;;;;;5050984;28;20151;-57
2021/03/04 10:01:30;;;;;;;121.57;54.50;;;9.10;99.90;;;;;;5050168;28;20033;-56
2021/03/04 10:04:00;;;;;;;119.32;55.33;;;9.20;99.90;;;;;;5050178;28;20033;-53
2021/03/04 10:06:26;;;;;;;112.82;52.63;;;9.30;99.90;;;;;;5056680;28;20039;-54
2021/03/04 10:08:53;;;;;;;113.47;53.03;;;9.30;99.90;;;;;;5054630;28;20033;-54
2021/03/04 10:11:24;;;;;;;120.35;52.90;;;9.20;99.90;;;;;;5046550;28;20031;-53
2021/03/04 10:13:50;;;;;;;119.85;54.67;;;9.20;99.90;;;;;;5049641;28;20040;-54
2021/03/04 10:16:16;;;;;;;118.70;53.83;;;9.20;99.90;;;;;;5065696;28;20032;-59
2021/03/04 10:18:44;;;;;;;127.38;55.92;;;9.20;99.90;;;;;;5060818;28;20044;-57
2021/03/04 10:21:10;;;;;;;130.50;61.08;;;9.20;99.90;;;;;;5066259;28;20035;-56
2021/03/04 10:23:35;;;;;;;136.35;59.95;;;9.20;99.90;;;;;;5053487;28;20104;-56
2021/03/04 10:26:01;;;;;;;118.57;56.58;;;9.10;99.90;;;;;;5065083;28;20124;-56
2021/03/04 10:28:26;;;;;;;128.02;59.03;;;9.10;99.90;;;;;;5053167;28;20053;-54
2021/03/04 10:30:52;;;;;;;131.70;60.30;;;9.10;99.90;;;;;;5058834;28;20519;-56
2021/03/04 10:33:18;;;;;;;113.13;54.90;;;9.10;99.90;;;;;;5059906;28;20127;-54
2021/03/04 10:35:43;;;;;;;122.85;55.88;;;9.10;99.90;;;;;;5040346;28;20108;-53
2021/03/04 10:38:09;;;;;;;112.53;53.67;;;9.20;99.90;;;;;;5055797;28;20032;-53
2021/03/04 10:40:34;;;;;;;114.85;54.47;;;9.20;99.90;;;;;;5054678;28;20033;-53
2021/03/04 10:43:00;;;;;;;112.45;53.03;;;9.30;99.90;;;;;;5055267;28;20024;-52
2021/03/04 10:45:26;;;;;;;115.00;54.80;;;9.20;99.90;;;;;;5055426;28;20453;-56
2021/03/04 10:47:51;;;;;;;112.43;52.38;;;9.20;99.90;;;;;;5054511;28;20024;-53
2021/03/04 10:50:21;;;;;;;116.78;53.30;;;9.20;99.90;;;;;;5054771;28;20397;-50
2021/03/04 10:52:47;;;;;;;111.40;54.08;;;9.20;99.90;;;;;;5058024;28;20108;-54
2021/03/04 10:55:15;;;;;;;114.90;53.60;;;9.20;99.90;;;;;;5052499;28;20032;-51
2021/03/04 10:57:41;;;;;;;107.25;50.92;;;9.20;99.90;;;;;;5054975;28;20115;-52
2021/03/04 11:00:09;;;;;;;104.57;48.97;;;9.20;99.90;;;;;;5059696;28;20100;-52
2021/03/04 11:02:35;;;;;;;110.75;50.88;;;9.20;99.90;;;;;;5054784;28;20043;-50
2021/03/04 11:05:01;;;;;;;109.38;51.25;;;9.20;99.90;;;;;;5055090;28;20438;-54
2021/03/04 11:07:26;;;;;;;98.32;47.55;;;9.20;99.90;;;;;;5055222;28;20033;-53
2021/03/04 11:09:52;;;;;;;102.43;48.22;;;9.20;99.90;;;;;;5053529;28;20033;-53
2021/03/04 11:12:21;;;;;;;99.35;45.22;;;9.30;99.90;;;;;;5055763;28;20029;-51
2021/03/04 11:14:46;;;;;;;77.97;38.13;;;9.40;99.90;;;;;;5052439;28;20126;-51
2021/03/04 11:17:13;;;;;;;65.80;33.90;;;9.60;99.90;;;;;;5052688;28;20481;-51
2021/03/04 11:19:39;;;;;;;62.85;32.17;;;9.60;99.90;;;;;;5055445;28;20029;-50
2021/03/04 11:22:05;;;;;;;56.13;30.38;;;9.60;99.90;;;;;;5052103;28;20392;-51
2021/03/04 11:24:32;;;;;;;64.30;32.25;;;9.70;99.90;;;;;;5052139;28;20511;-51
2021/03/04 11:26:58;;;;;;;59.25;32.00;;;9.70;99.90;;;;;;5053441;28;20135;-53
2021/03/04 11:29:23;;;;;;;68.00;33.40;;;9.70;99.90;;;;;;5055771;28;20108;-52
2021/03/04 11:31:49;;;;;;;64.47;32.60;;;9.70;99.90;;;;;;5052696;28;20082;-51
2021/03/04 11:34:15;;;;;;;63.17;31.70;;;9.60;99.90;;;;;;5051366;28;20094;-55
2021/03/04 11:36:41;;;;;;;60.40;31.92;;;9.60;99.90;;;;;;5056875;28;20449;-55
2021/03/04 11:39:06;;;;;;;66.93;30.77;;;9.40;99.90;;;;;;5056755;28;20024;-57
2021/03/04 11:41:32;;;;;;;68.40;32.45;;;9.40;99.90;;;;;;5050245;28;20059;-54
2021/03/04 11:43:58;;;;;;;65.68;32.67;;;9.50;99.90;;;;;;5056506;28;20143;-52
2021/03/04 11:46:24;;;;;;;67.80;33.22;;;9.60;99.90;;;;;;5056146;28;20036;-55
2021/03/04 11:48:51;;;;;;;67.65;34.20;;;9.60;99.90;;;;;;5052654;28;20436;-51
2021/03/04 11:51:17;;;;;;;74.22;35.35;;;9.60;99.90;;;;;;5057797;28;20028;-51
2021/03/04 11:53:43;;;;;;;75.50;36.22;;;9.60;99.90;;;;;;5056756;28;20393;-53
2021/03/04 11:56:09;;;;;;;76.68;37.05;;;9.60;99.90;;;;;;5049350;28;20021;-54
2021/03/04 11:58:36;;;;;;;77.22;36.47;;;9.60;99.90;;;;;;5051621;28;20476;-51
2021/03/04 12:01:02;;;;;;;76.43;36.42;;;9.50;99.90;;;;;;5058611;28;20107;-54
2021/03/04 12:03:28;;;;;;;80.68;40.03;;;9.50;99.90;;;;;;5054298;28;20036;-53
2021/03/04 12:05:53;;;;;;;89.03;39.50;;;9.40;99.90;;;;;;5051603;28;20033;-52
2021/03/04 12:08:19;;;;;;;91.47;41.63;;;9.30;99.90;;;;;;5053118;28;20064;-53
2021/03/04 12:10:45;;;;;;;93.45;42.58;;;9.30;99.90;;;;;;5061373;28;20059;-53
2021/03/04 12:13:11;;;;;;;100.53;43.53;;;9.30;99.90;;;;;;5053272;28;20032;-53
2021/03/04 12:15:40;;;;;;;97.70;44.60;;;9.20;99.90;;;;;;5058553;28;20044;-52
2021/03/04 12:18:06;;;;;;;103.25;48.33;;;9.20;99.90;;;;;;5052242;28;20032;-52
2021/03/04 12:20:32;;;;;;;109.28;46.60;;;9.20;99.90;;;;;;5054160;28;20033;-52
2021/03/04 12:22:58;;;;;;;107.13;47.78;;;9.10;99.90;;;;;;5054933;28;20488;-57
2021/03/04 12:25:24;;;;;;;126.25;55.97;;;9.10;99.90;;;;;;5052110;28;20108;-53
2021/03/04 12:27:50;;;;;;;115.20;49.95;;;9.10;99.90;;;;;;5049627;28;20044;-56
2021/03/04 12:30:17;;;;;;;103.05;46.00;;;9.00;99.90;;;;;;5049044;28;20529;-53
2021/03/04 12:32:44;;;;;;;94.55;42.85;;;8.90;99.90;;;;;;5051116;28;20120;-54